Terminal Aerodrome Forecast
Issued by NWS Mobile, AL

Current Version | Previous Version | Text Only | Print | Product List | Glossary On
Versions: 1 2 3 4 5 6 7 8 9 10 11 12 13 14 15 16 17 18 19 20 21 22 23
000
FTUS44 KMOB 040526
TAFMOB
TAF
KMOB 040526Z 0406/0506 23003KT P6SM SCT250
     FM040900 00000KT 4SM BR BKN250
     FM041500 34002KT P6SM SCT250
     FM042000 22004KT P6SM VCTS SCT040CB SCT250=

USA.gov is the U.S. government's official web portal to all federal, state and local government web resources and services.